Time;durP1;ratioP1;P1;durP2;ratioP2;P2;SDS_P1;SDS_P2;PMS_P1;PMS_P2;Temp;Humidity;BMP_temperature;BMP_pressure;BME280_temperature;BME280_humidity;BME280_pressure;Samples;Min_cycle;Max_cycle;Signal;HPM_P1;HPM_P2
2024/03/11 00:02:04;;;;;;;4.80;1.45;;;;;;;;;;4868523;29;20053;-74
2024/03/11 00:04:36;;;;;;;7.65;1.55;;;;;;;;;;4868802;29;20505;-73
2024/03/11 00:07:08;;;;;;;3.88;1.52;;;;;;;;;;4870054;29;20523;-74
2024/03/11 00:09:44;;;;;;;9.95;1.77;;;;;;;;;;4868888;29;20533;-74
2024/03/11 00:12:22;;;;;;;14.40;1.83;;;;;;;;;;4868232;29;20511;-73
2024/03/11 00:14:53;;;;;;;4.68;1.25;;;;;;;;;;4868833;29;20413;-73
2024/03/11 00:17:23;;;;;;;11.32;2.28;;;;;;;;;;4869374;29;20056;-73
2024/03/11 00:19:53;;;;;;;3.92;1.17;;;;;;;;;;4868695;29;20049;-73
2024/03/11 00:22:24;;;;;;;7.95;1.30;;;;;;;;;;4868358;29;20049;-74
2024/03/11 00:24:55;;;;;;;8.02;1.30;;;;;;;;;;4868461;29;20064;-71
2024/03/11 00:27:25;;;;;;;4.03;1.40;;;;;;;;;;4868638;29;20060;-73
2024/03/11 00:29:55;;;;;;;6.43;1.48;;;;;;;;;;4868430;29;20059;-72
2024/03/11 00:32:25;;;;;;;4.10;1.50;;;;;;;;;;4868406;29;20052;-75
2024/03/11 00:34:57;;;;;;;7.75;1.45;;;;;;;;;;4869296;29;20515;-75
2024/03/11 00:37:28;;;;;;;11.38;1.30;;;;;;;;;;4868803;29;20054;-75
2024/03/11 00:39:59;;;;;;;7.38;1.48;;;;;;;;;;4869159;29;20053;-74
2024/03/11 00:42:29;;;;;;;10.82;1.40;;;;;;;;;;4868519;29;20049;-74
2024/03/11 00:44:59;;;;;;;8.68;1.38;;;;;;;;;;4868711;29;20049;-74
2024/03/11 00:47:30;;;;;;;7.57;1.50;;;;;;;;;;4868746;29;20052;-74
2024/03/11 00:50:06;;;;;;;9.43;1.40;;;;;;;;;;4868916;29;20049;-71
2024/03/11 00:52:37;;;;;;;6.63;1.23;;;;;;;;;;4868864;29;20049;-74
2024/03/11 00:55:09;;;;;;;9.48;1.50;;;;;;;;;;4866822;29;20420;-72
2024/03/11 00:57:41;;;;;;;10.65;1.50;;;;;;;;;;4865355;29;20064;-73
2024/03/11 01:00:12;;;;;;;9.07;2.33;;;;;;;;;;4868584;29;20049;-72
2024/03/11 01:02:43;;;;;;;6.05;1.80;;;;;;;;;;4867886;29;20505;-71
2024/03/11 01:05:15;;;;;;;7.53;1.58;;;;;;;;;;4868130;29;20421;-73
2024/03/11 01:07:45;;;;;;;6.68;1.50;;;;;;;;;;4871325;29;20053;-73
2024/03/11 01:10:17;;;;;;;10.90;1.50;;;;;;;;;;4871279;29;20612;-72
2024/03/11 01:12:49;;;;;;;10.02;1.60;;;;;;;;;;4871995;29;20061;-72
2024/03/11 01:15:20;;;;;;;8.18;1.83;;;;;;;;;;4871674;29;20603;-75
2024/03/11 01:17:50;;;;;;;9.80;1.73;;;;;;;;;;4870765;29;20055;-73
2024/03/11 01:20:24;;;;;;;10.30;2.03;;;;;;;;;;4871607;29;20056;-74
2024/03/11 01:22:55;;;;;;;9.85;1.55;;;;;;;;;;4871517;29;20083;-76
2024/03/11 01:25:26;;;;;;;8.07;1.33;;;;;;;;;;4871939;29;20053;-74
2024/03/11 01:27:56;;;;;;;10.00;1.77;;;;;;;;;;4872141;29;20550;-75
2024/03/11 01:30:27;;;;;;;8.20;1.65;;;;;;;;;;4871753;29;20053;-74
2024/03/11 01:32:58;;;;;;;7.93;1.83;;;;;;;;;;4871400;29;20060;-74
2024/03/11 01:35:29;;;;;;;6.90;1.75;;;;;;;;;;4872600;29;20064;-74
2024/03/11 01:38:00;;;;;;;5.30;1.75;;;;;;;;;;4871489;29;20052;-74
2024/03/11 01:40:31;;;;;;;9.63;1.60;;;;;;;;;;4871374;29;20519;-74
2024/03/11 01:43:03;;;;;;;5.85;1.30;;;;;;;;;;4871377;29;20057;-75
2024/03/11 01:45:35;;;;;;;10.13;1.83;;;;;;;;;;4872681;29;20436;-73
2024/03/11 01:48:05;;;;;;;7.53;1.15;;;;;;;;;;4871482;29;20059;-74
2024/03/11 01:50:38;;;;;;;9.15;1.70;;;;;;;;;;4870925;29;20052;-74
2024/03/11 01:53:11;;;;;;;8.10;1.70;;;;;;;;;;4871549;29;20052;-74
2024/03/11 01:55:43;;;;;;;14.10;1.90;;;;;;;;;;4869667;29;20056;-75
2024/03/11 01:58:16;;;;;;;7.15;1.80;;;;;;;;;;4870804;29;20056;-74
2024/03/11 02:00:46;;;;;;;4.50;1.45;;;;;;;;;;4870986;29;20060;-74
2024/03/11 02:03:17;;;;;;;4.68;1.30;;;;;;;;;;4871648;29;20041;-75
2024/03/11 02:05:47;;;;;;;9.98;1.60;;;;;;;;;;4871207;29;20064;-74
2024/03/11 02:08:21;;;;;;;8.18;1.70;;;;;;;;;;4870609;29;20057;-74
2024/03/11 02:10:52;;;;;;;10.80;1.65;;;;;;;;;;4870487;29;20053;-74
2024/03/11 02:13:23;;;;;;;8.23;1.50;;;;;;;;;;4870865;29;20405;-73
2024/03/11 02:15:54;;;;;;;7.57;1.52;;;;;;;;;;4871057;29;20634;-73
2024/03/11 02:18:24;;;;;;;7.93;1.20;;;;;;;;;;4871558;29;20408;-74
2024/03/11 02:20:56;;;;;;;7.72;1.55;;;;;;;;;;4871008;29;20534;-73
2024/03/11 02:23:27;;;;;;;6.15;1.35;;;;;;;;;;4870942;29;20056;-74
2024/03/11 02:25:58;;;;;;;7.20;1.70;;;;;;;;;;4870922;29;20413;-73
2024/03/11 02:28:28;;;;;;;5.85;1.13;;;;;;;;;;4870143;29;20060;-73
2024/03/11 02:30:59;;;;;;;12.30;1.85;;;;;;;;;;4870339;29;20436;-73
2024/03/11 02:33:32;;;;;;;4.45;1.40;;;;;;;;;;4870413;29;20049;-74
2024/03/11 02:36:03;;;;;;;7.03;1.33;;;;;;;;;;4869268;29;20061;-74
2024/03/11 02:38:34;;;;;;;4.80;1.45;;;;;;;;;;4870202;29;20053;-74
2024/03/11 02:41:04;;;;;;;6.22;1.15;;;;;;;;;;4870120;29;20532;-74
2024/03/11 02:43:36;;;;;;;10.02;1.95;;;;;;;;;;4869905;29;20052;-73
2024/03/11 02:46:06;;;;;;;6.15;1.38;;;;;;;;;;4870447;29;20052;-74
2024/03/11 02:48:37;;;;;;;7.78;1.67;;;;;;;;;;4870463;29;20056;-75
2024/03/11 02:51:08;;;;;;;6.32;1.63;;;;;;;;;;4870524;29;20059;-74
2024/03/11 02:53:40;;;;;;;8.80;1.52;;;;;;;;;;4869913;29;20638;-75
2024/03/11 02:56:13;;;;;;;4.60;1.27;;;;;;;;;;4869966;29;20512;-74
2024/03/11 02:58:44;;;;;;;10.57;1.67;;;;;;;;;;4870297;29;20057;-74
2024/03/11 03:01:14;;;;;;;12.60;1.58;;;;;;;;;;4870498;29;20508;-74
2024/03/11 03:03:47;;;;;;;8.35;1.55;;;;;;;;;;4869617;29;20064;-74
2024/03/11 03:06:18;;;;;;;11.40;1.70;;;;;;;;;;4869736;29;20055;-75
2024/03/11 03:08:48;;;;;;;5.93;1.30;;;;;;;;;;4869658;29;20707;-74
2024/03/11 03:11:18;;;;;;;12.48;1.48;;;;;;;;;;4869704;29;20049;-75
2024/03/11 03:13:49;;;;;;;7.55;1.63;;;;;;;;;;4869972;29;20056;-74
2024/03/11 03:16:21;;;;;;;8.88;1.50;;;;;;;;;;4869149;29;20053;-74
2024/03/11 03:18:51;;;;;;;9.57;1.50;;;;;;;;;;4869501;29;20520;-74
2024/03/11 03:21:24;;;;;;;6.57;1.33;;;;;;;;;;4868221;29;20049;-74
2024/03/11 03:23:54;;;;;;;5.00;1.10;;;;;;;;;;4869946;29;20049;-74
2024/03/11 03:26:24;;;;;;;6.65;1.20;;;;;;;;;;4869698;29;20127;-74
2024/03/11 03:28:56;;;;;;;13.98;1.70;;;;;;;;;;4868477;29;20123;-72
2024/03/11 03:31:28;;;;;;;10.60;1.83;;;;;;;;;;4868945;29;20406;-73
2024/03/11 03:33:59;;;;;;;7.43;1.55;;;;;;;;;;4868955;29;20057;-73
2024/03/11 03:36:31;;;;;;;7.43;1.60;;;;;;;;;;4869437;29;20068;-73
2024/03/11 03:39:03;;;;;;;10.98;1.42;;;;;;;;;;4869447;29;20501;-74
2024/03/11 03:41:33;;;;;;;4.45;1.25;;;;;;;;;;4869559;29;20402;-73
2024/03/11 03:44:04;;;;;;;10.90;1.80;;;;;;;;;;4868733;29;20053;-73
2024/03/11 03:46:35;;;;;;;11.00;1.80;;;;;;;;;;4868906;29;20067;-74
2024/03/11 03:49:07;;;;;;;6.47;1.45;;;;;;;;;;4869100;29;20045;-74
2024/03/11 03:51:37;;;;;;;5.70;1.30;;;;;;;;;;4869293;29;20057;-73
2024/03/11 03:54:07;;;;;;;12.40;1.55;;;;;;;;;;4869155;29;20056;-73
2024/03/11 03:56:38;;;;;;;8.07;1.40;;;;;;;;;;4868896;29;21242;-73
2024/03/11 03:59:09;;;;;;;7.05;1.48;;;;;;;;;;4867317;29;20064;-73
2024/03/11 04:01:39;;;;;;;8.05;2.28;;;;;;;;;;4868720;29;20060;-72
2024/03/11 04:04:09;;;;;;;5.47;1.67;;;;;;;;;;4868823;29;20057;-73
2024/03/11 04:06:40;;;;;;;7.82;1.92;;;;;;;;;;4867874;29;20064;-73
2024/03/11 04:09:14;;;;;;;6.20;1.60;;;;;;;;;;4867337;29;20590;-73
2024/03/11 04:11:45;;;;;;;7.30;1.55;;;;;;;;;;4869265;29;20056;-73
2024/03/11 04:14:15;;;;;;;10.35;1.83;;;;;;;;;;4868703;29;20599;-73
2024/03/11 04:16:45;;;;;;;9.35;1.70;;;;;;;;;;4868841;29;20065;-73
2024/03/11 04:19:17;;;;;;;5.15;1.55;;;;;;;;;;4869077;29;20063;-73
2024/03/11 04:21:48;;;;;;;3.28;1.38;;;;;;;;;;4869055;29;20504;-73
2024/03/11 04:24:22;;;;;;;6.35;1.30;;;;;;;;;;4869170;29;20049;-73
2024/03/11 04:26:53;;;;;;;11.68;1.52;;;;;;;;;;4868588;29;20049;-74
2024/03/11 04:29:23;;;;;;;6.07;1.85;;;;;;;;;;4869076;29;20508;-73
2024/03/11 04:31:57;;;;;;;16.10;1.75;;;;;;;;;;4866837;29;20053;-73
2024/03/11 04:34:29;;;;;;;4.00;1.52;;;;;;;;;;4865989;29;20053;-73
2024/03/11 04:37:00;;;;;;;9.02;1.90;;;;;;;;;;4866189;29;20052;-74
2024/03/11 04:39:31;;;;;;;5.65;1.20;;;;;;;;;;4866247;29;20049;-73
2024/03/11 04:42:03;;;;;;;6.50;1.40;;;;;;;;;;4869763;29;20052;-73
2024/03/11 04:44:35;;;;;;;7.30;1.50;;;;;;;;;;4869732;29;20052;-73
2024/03/11 04:47:06;;;;;;;7.93;1.50;;;;;;;;;;4869712;29;20049;-73
2024/03/11 04:49:36;;;;;;;5.90;1.48;;;;;;;;;;4869667;29;20048;-73
2024/03/11 04:52:08;;;;;;;15.52;1.70;;;;;;;;;;4869145;29;20064;-73
2024/03/11 04:54:38;;;;;;;10.90;1.40;;;;;;;;;;4869656;29;20056;-73
2024/03/11 04:57:09;;;;;;;12.75;1.73;;;;;;;;;;4867421;29;20056;-73
2024/03/11 04:59:40;;;;;;;9.40;1.42;;;;;;;;;;4869363;29;20409;-73
2024/03/11 05:02:10;;;;;;;5.75;1.58;;;;;;;;;;4869035;29;20517;-73
2024/03/11 05:04:40;;;;;;;7.82;1.48;;;;;;;;;;4869540;29;20053;-73
2024/03/11 05:07:10;;;;;;;12.63;1.50;;;;;;;;;;4869531;29;20397;-73
2024/03/11 05:09:41;;;;;;;8.23;1.60;;;;;;;;;;4869312;29;20599;-73
2024/03/11 05:12:11;;;;;;;8.48;1.38;;;;;;;;;;4869256;29;20118;-73
2024/03/11 05:14:41;;;;;;;10.60;1.83;;;;;;;;;;4868704;29;20049;-73
2024/03/11 05:17:13;;;;;;;11.57;1.60;;;;;;;;;;4868813;29;20059;-73
2024/03/11 05:19:43;;;;;;;4.95;1.52;;;;;;;;;;4869669;29;20073;-73
2024/03/11 05:22:13;;;;;;;8.70;1.40;;;;;;;;;;4868713;29;20131;-73
2024/03/11 05:24:44;;;;;;;8.88;1.67;;;;;;;;;;4869162;29;20049;-73
2024/03/11 05:27:15;;;;;;;8.77;1.38;;;;;;;;;;4869771;29;20056;-73
2024/03/11 05:29:45;;;;;;;4.82;1.45;;;;;;;;;;4868893;29;20509;-73
2024/03/11 05:32:17;;;;;;;7.80;1.40;;;;;;;;;;4869055;29;20073;-73
2024/03/11 05:34:48;;;;;;;9.27;1.60;;;;;;;;;;4868553;29;20816;-73
2024/03/11 05:37:20;;;;;;;8.65;1.45;;;;;;;;;;4868716;29;20060;-73
2024/03/11 05:39:53;;;;;;;5.30;1.90;;;;;;;;;;4868560;29;20080;-73
2024/03/11 05:42:24;;;;;;;3.63;1.20;;;;;;;;;;4868887;29;20060;-74
2024/03/11 05:44:58;;;;;;;10.73;1.60;;;;;;;;;;4869441;29;20524;-73
2024/03/11 05:47:29;;;;;;;5.72;1.40;;;;;;;;;;4868605;29;20053;-73
2024/03/11 05:50:03;;;;;;;5.45;1.63;;;;;;;;;;4868472;29;20064;-73
2024/03/11 05:52:33;;;;;;;7.28;1.45;;;;;;;;;;4867546;29;20045;-73
2024/03/11 05:55:12;;;;;;;5.28;1.42;;;;;;;;;;4868289;29;20524;-73
2024/03/11 05:57:44;;;;;;;9.88;1.55;;;;;;;;;;4868138;29;20061;-73
2024/03/11 06:00:17;;;;;;;10.23;1.40;;;;;;;;;;4868111;29;20041;-73
2024/03/11 06:02:47;;;;;;;10.32;1.50;;;;;;;;;;4868054;29;20053;-73
2024/03/11 06:05:19;;;;;;;8.10;1.52;;;;;;;;;;4868015;29;20060;-73
2024/03/11 06:07:53;;;;;;;5.50;1.45;;;;;;;;;;4868270;29;20079;-73
2024/03/11 06:10:25;;;;;;;6.32;1.40;;;;;;;;;;4867221;29;20400;-74
2024/03/11 06:12:57;;;;;;;14.88;1.58;;;;;;;;;;4868266;29;20053;-73
2024/03/11 06:15:27;;;;;;;4.55;1.58;;;;;;;;;;4868420;29;20066;-74
2024/03/11 06:17:58;;;;;;;6.93;1.10;;;;;;;;;;4868296;29;20416;-73
2024/03/11 06:20:30;;;;;;;2.40;1.38;;;;;;;;;;4867549;29;20053;-73
2024/03/11 06:23:02;;;;;;;4.18;1.40;;;;;;;;;;4866875;29;20056;-73
2024/03/11 06:25:33;;;;;;;6.28;1.50;;;;;;;;;;4868108;29;20056;-72
2024/03/11 06:28:04;;;;;;;5.63;2.05;;;;;;;;;;4868556;29;20060;-73
2024/03/11 06:30:39;;;;;;;3.58;1.23;;;;;;;;;;4867604;29;20536;-73
2024/03/11 06:33:11;;;;;;;5.00;1.20;;;;;;;;;;4867437;29;20062;-73
2024/03/11 06:35:41;;;;;;;8.27;1.50;;;;;;;;;;4867584;29;20057;-73
2024/03/11 06:38:14;;;;;;;7.30;1.38;;;;;;;;;;4867647;29;20064;-73
2024/03/11 06:40:45;;;;;;;6.10;1.88;;;;;;;;;;4867596;29;20052;-73
2024/03/11 06:43:15;;;;;;;7.70;1.40;;;;;;;;;;4868235;29;20053;-73
2024/03/11 06:45:46;;;;;;;5.13;1.00;;;;;;;;;;4867520;29;20751;-73
2024/03/11 06:48:17;;;;;;;5.78;1.45;;;;;;;;;;4867886;29;20057;-73
2024/03/11 06:50:49;;;;;;;7.78;1.27;;;;;;;;;;4867110;29;20841;-72
2024/03/11 06:53:19;;;;;;;3.35;1.30;;;;;;;;;;4867300;29;20044;-72
2024/03/11 06:55:49;;;;;;;12.60;1.38;;;;;;;;;;4866960;29;20053;-73
2024/03/11 06:58:20;;;;;;;3.03;0.98;;;;;;;;;;4867179;29;20049;-72
2024/03/11 07:00:51;;;;;;;5.07;1.27;;;;;;;;;;4867615;29;20053;-72
2024/03/11 07:03:23;;;;;;;5.90;1.40;;;;;;;;;;4866168;29;20064;-73
2024/03/11 07:05:53;;;;;;;4.93;1.40;;;;;;;;;;4867131;29;20056;-73
2024/03/11 07:08:23;;;;;;;4.25;1.33;;;;;;;;;;4867531;29;20060;-72
2024/03/11 07:11:00;;;;;;;10.10;1.58;;;;;;;;;;4867409;29;20534;-73
2024/03/11 07:13:32;;;;;;;10.20;1.33;;;;;;;;;;4868365;29;20056;-72
2024/03/11 07:16:05;;;;;;;6.55;1.55;;;;;;;;;;4867052;29;20056;-73
2024/03/11 07:18:35;;;;;;;4.20;1.58;;;;;;;;;;4866929;29;20060;-72
2024/03/11 07:21:06;;;;;;;6.70;1.55;;;;;;;;;;4866940;29;20060;-73
2024/03/11 07:23:37;;;;;;;5.20;2.13;;;;;;;;;;4866589;29;20525;-72
2024/03/11 07:26:07;;;;;;;5.05;1.30;;;;;;;;;;4866884;29;20049;-73
2024/03/11 07:28:37;;;;;;;4.95;1.60;;;;;;;;;;4865328;29;20060;-73
2024/03/11 07:31:09;;;;;;;4.47;1.17;;;;;;;;;;4866641;29;20522;-73
2024/03/11 07:33:40;;;;;;;9.30;1.58;;;;;;;;;;4866713;29;20498;-73
2024/03/11 07:36:11;;;;;;;12.55;1.70;;;;;;;;;;4866475;29;20055;-73
2024/03/11 07:38:42;;;;;;;5.63;1.40;;;;;;;;;;4867284;29;20049;-73
2024/03/11 07:41:12;;;;;;;4.15;1.30;;;;;;;;;;4866773;29;20052;-73
2024/03/11 07:43:43;;;;;;;3.63;1.13;;;;;;;;;;4866650;29;20056;-73
2024/03/11 07:46:14;;;;;;;9.18;1.70;;;;;;;;;;4866853;29;20413;-72
2024/03/11 07:48:45;;;;;;;10.98;1.70;;;;;;;;;;4866142;29;20085;-72
2024/03/11 07:51:15;;;;;;;3.53;1.48;;;;;;;;;;4866627;29;20083;-73
2024/03/11 07:53:47;;;;;;;5.15;1.42;;;;;;;;;;4866721;29;20048;-72
2024/03/11 07:56:17;;;;;;;5.00;1.70;;;;;;;;;;4866153;29;20053;-73
2024/03/11 07:58:48;;;;;;;5.50;1.60;;;;;;;;;;4866572;29;20053;-73
2024/03/11 08:01:22;;;;;;;9.40;1.55;;;;;;;;;;4866495;29;20059;-73
2024/03/11 08:03:53;;;;;;;18.30;2.30;;;;;;;;;;4866208;29;20064;-72
2024/03/11 08:06:25;;;;;;;11.00;2.28;;;;;;;;;;4866284;29;20611;-73
2024/03/11 08:08:55;;;;;;;9.32;1.83;;;;;;;;;;4866077;29;20420;-72
2024/03/11 08:11:25;;;;;;;3.58;1.33;;;;;;;;;;4866466;29;20053;-73
2024/03/11 08:13:57;;;;;;;7.85;1.35;;;;;;;;;;4866134;29;20049;-73
2024/03/11 08:16:28;;;;;;;7.00;1.75;;;;;;;;;;4865696;29;20401;-73
2024/03/11 08:18:58;;;;;;;8.23;2.20;;;;;;;;;;4866027;29;20515;-73
2024/03/11 08:21:28;;;;;;;8.63;1.88;;;;;;;;;;4864167;29;20505;-73
2024/03/11 08:23:58;;;;;;;8.75;1.60;;;;;;;;;;4866403;29;20053;-73
2024/03/11 08:26:30;;;;;;;8.45;2.17;;;;;;;;;;4865825;29;20060;-73
2024/03/11 08:29:00;;;;;;;4.38;1.42;;;;;;;;;;4865000;29;20060;-72
2024/03/11 08:31:30;;;;;;;17.83;1.58;;;;;;;;;;4866112;29;20049;-73
2024/03/11 08:34:01;;;;;;;14.18;1.63;;;;;;;;;;4865816;29;20052;-73
2024/03/11 08:36:32;;;;;;;8.85;1.50;;;;;;;;;;4866337;29;20056;-73
2024/03/11 08:39:04;;;;;;;4.22;1.35;;;;;;;;;;4866140;29;20060;-73
2024/03/11 08:41:34;;;;;;;4.22;1.10;;;;;;;;;;4864789;29;20061;-73
2024/03/11 08:44:07;;;;;;;14.50;1.20;;;;;;;;;;4866358;29;20052;-73
2024/03/11 08:46:37;;;;;;;9.00;1.08;;;;;;;;;;4865627;29;20421;-73
2024/03/11 08:49:11;;;;;;;5.97;1.25;;;;;;;;;;4865962;29;20058;-73
2024/03/11 08:51:42;;;;;;;3.75;1.20;;;;;;;;;;4866058;29;20599;-73
2024/03/11 08:54:12;;;;;;;2.83;1.35;;;;;;;;;;4865735;29;20053;-73
2024/03/11 08:56:42;;;;;;;1.13;1.02;;;;;;;;;;4865466;29;20072;-73
2024/03/11 08:59:12;;;;;;;2.45;1.05;;;;;;;;;;4866009;29;20079;-73
2024/03/11 09:01:44;;;;;;;2.55;1.20;;;;;;;;;;4866216;29;20049;-73
2024/03/11 09:04:15;;;;;;;1.98;1.20;;;;;;;;;;4864180;29;20596;-73
2024/03/11 09:06:46;;;;;;;3.55;1.10;;;;;;;;;;4865702;29;20443;-73
2024/03/11 09:09:16;;;;;;;1.08;0.90;;;;;;;;;;4865547;29;20417;-73
2024/03/11 09:11:47;;;;;;;6.47;1.27;;;;;;;;;;4865714;29;20060;-72
2024/03/11 09:14:18;;;;;;;1.58;1.05;;;;;;;;;;4865423;29;20396;-73
2024/03/11 09:16:49;;;;;;;6.32;1.20;;;;;;;;;;4865705;29;20519;-72
2024/03/11 09:19:20;;;;;;;3.88;1.10;;;;;;;;;;4868251;29;20053;-75
2024/03/11 09:21:53;;;;;;;2.35;1.17;;;;;;;;;;4868150;29;20079;-72
2024/03/11 09:24:24;;;;;;;5.55;1.30;;;;;;;;;;4868366;29;20428;-76
2024/03/11 09:26:54;;;;;;;3.05;1.38;;;;;;;;;;4868933;29;20053;-73
2024/03/11 09:29:24;;;;;;;5.22;1.20;;;;;;;;;;4870095;29;20064;-74
2024/03/11 09:31:54;;;;;;;1.55;1.10;;;;;;;;;;4871569;29;20049;-72
2024/03/11 09:34:29;;;;;;;2.40;1.25;;;;;;;;;;4871139;29;20453;-73
2024/03/11 09:36:59;;;;;;;4.38;1.25;;;;;;;;;;4871594;29;20123;-74
2024/03/11 09:39:30;;;;;;;3.28;1.10;;;;;;;;;;4871428;29;20405;-75
2024/03/11 09:42:05;;;;;;;4.57;1.08;;;;;;;;;;4871239;29;20071;-73
2024/03/11 09:44:36;;;;;;;6.60;1.30;;;;;;;;;;4871665;29;20057;-74
2024/03/11 09:47:07;;;;;;;1.98;0.95;;;;;;;;;;4869878;29;20068;-74
2024/03/11 09:49:37;;;;;;;7.97;1.42;;;;;;;;;;4869514;29;20060;-74
2024/03/11 09:52:09;;;;;;;2.35;1.13;;;;;;;;;;4871236;29;20041;-74
2024/03/11 09:54:40;;;;;;;4.82;1.55;;;;;;;;;;4871467;29;20056;-75
2024/03/11 09:57:13;;;;;;;1.85;1.40;;;;;;;;;;4870683;29;20520;-76
2024/03/11 09:59:49;;;;;;;6.68;1.40;;;;;;;;;;4870831;29;20049;-74
2024/03/11 10:02:19;;;;;;;;;;;;;;;;;;4871717;29;20075;-75
2024/03/11 10:04:53;;;;;;;3.08;1.40;;;;;;;;;;4871251;29;19928;-73
2024/03/11 10:07:25;;;;;;;7.75;1.58;;;;;;;;;;4871610;29;20052;-73
2024/03/11 10:09:56;;;;;;;1.88;1.08;;;;;;;;;;4871643;29;20493;-73
2024/03/11 10:12:28;;;;;;;7.80;1.67;;;;;;;;;;4870522;29;20045;-74
2024/03/11 10:15:00;;;;;;;3.85;1.13;;;;;;;;;;4870640;29;20057;-78
2024/03/11 10:17:34;;;;;;;5.18;1.25;;;;;;;;;;4869998;29;20061;-75
2024/03/11 10:20:14;;;;;;;6.28;0.95;;;;;;;;;;4870594;29;20055;-74
2024/03/11 10:22:47;;;;;;;0.70;0.70;;;;;;;;;;4870000;29;20049;-74
2024/03/11 10:25:27;;;;;;;2.35;1.00;;;;;;;;;;4870799;29;20060;-75
2024/03/11 10:27:58;;;;;;;8.27;1.08;;;;;;;;;;4870088;29;20053;-74
2024/03/11 10:30:31;;;;;;;4.47;0.98;;;;;;;;;;4870355;29;20052;-74
2024/03/11 10:33:02;;;;;;;3.22;0.93;;;;;;;;;;4870166;29;20071;-74
2024/03/11 10:35:39;;;;;;;5.40;1.00;;;;;;;;;;4869351;29;20049;-82
2024/03/11 10:38:12;;;;;;;3.30;1.27;;;;;;;;;;4870433;29;20060;-75
2024/03/11 10:40:45;;;;;;;10.07;1.40;;;;;;;;;;4870440;29;20049;-75
2024/03/11 10:43:24;;;;;;;9.57;2.45;;;;;;;;;;4871079;29;20065;-75
2024/03/11 10:45:58;;;;;;;7.72;1.27;;;;;;;;;;4870688;29;20541;-74
2024/03/11 10:48:32;;;;;;;3.70;2.10;;;;;;;;;;4868221;29;20064;-72
2024/03/11 10:51:04;;;;;;;13.80;2.25;;;;;;;;;;4871427;29;20051;-78
2024/03/11 10:53:35;;;;;;;14.30;3.45;;;;;;;;;;4870378;29;20049;-75
2024/03/11 10:56:19;;;;;;;3.40;1.38;;;;;;;;;;4869808;29;20049;-73
2024/03/11 10:58:56;;;;;;;3.05;1.38;;;;;;;;;;4870322;29;20453;-72
2024/03/11 11:01:33;;;;;;;3.40;1.40;;;;;;;;;;4868643;29;20060;-79
2024/03/11 11:04:13;;;;;;;3.28;1.00;;;;;;;;;;4869049;29;20045;-74
2024/03/11 11:06:45;;;;;;;7.85;2.28;;;;;;;;;;4869716;29;20049;-75
2024/03/11 11:09:19;;;;;;;10.10;2.65;;;;;;;;;;4869763;29;20060;-75
2024/03/11 11:11:53;;;;;;;3.65;1.20;;;;;;;;;;4869805;29;20064;-75
2024/03/11 11:14:27;;;;;;;3.58;1.70;;;;;;;;;;4869626;29;20053;-75
2024/03/11 11:17:02;;;;;;;4.97;1.50;;;;;;;;;;4869226;29;20428;-75
2024/03/11 11:19:33;;;;;;;3.28;1.75;;;;;;;;;;4869618;29;20045;-75
2024/03/11 11:22:06;;;;;;;5.60;1.40;;;;;;;;;;4869996;29;20543;-76
2024/03/11 11:24:39;;;;;;;15.05;1.65;;;;;;;;;;4870686;29;20052;-75
2024/03/11 11:27:13;;;;;;;5.53;1.33;;;;;;;;;;4870102;29;20412;-75
2024/03/11 11:29:46;;;;;;;9.25;1.63;;;;;;;;;;4869044;29;20041;-74
2024/03/11 11:32:18;;;;;;;4.80;1.80;;;;;;;;;;4869691;29;20119;-74
2024/03/11 11:34:53;;;;;;;6.28;1.40;;;;;;;;;;4870073;29;20053;-74
2024/03/11 11:37:25;;;;;;;6.95;1.40;;;;;;;;;;4869786;29;20052;-79
2024/03/11 11:39:57;;;;;;;6.40;1.95;;;;;;;;;;4867664;29;20069;-73
2024/03/11 11:42:40;;;;;;;2.65;1.27;;;;;;;;;;4868304;29;20057;-81
2024/03/11 11:45:13;;;;;;;9.00;1.58;;;;;;;;;;4869196;29;20497;-74
2024/03/11 11:47:45;;;;;;;3.22;1.27;;;;;;;;;;4869143;29;20053;-75
2024/03/11 11:50:28;;;;;;;1.42;1.17;;;;;;;;;;4868273;29;20053;-75
2024/03/11 11:53:02;;;;;;;6.05;2.05;;;;;;;;;;4868723;29;20535;-73
2024/03/11 11:55:33;;;;;;;7.43;1.65;;;;;;;;;;4869196;29;20044;-74
2024/03/11 11:58:10;;;;;;;6.28;1.30;;;;;;;;;;4868331;29;20068;-74
2024/03/11 12:00:43;;;;;;;9.85;2.22;;;;;;;;;;4869222;29;20049;-75
2024/03/11 12:03:30;;;;;;;15.55;1.70;;;;;;;;;;4868921;29;20056;-75
2024/03/11 12:06:18;;;;;;;3.72;1.00;;;;;;;;;;4869663;29;20060;-75
2024/03/11 12:08:50;;;;;;;6.80;1.38;;;;;;;;;;4867178;29;20425;-75
2024/03/11 12:11:24;;;;;;;6.45;1.05;;;;;;;;;;4869127;29;20797;-76
2024/03/11 12:13:57;;;;;;;7.13;1.42;;;;;;;;;;4869605;29;20056;-75
2024/03/11 12:16:30;;;;;;;8.68;2.17;;;;;;;;;;4869511;29;20053;-74
2024/03/11 12:19:11;;;;;;;3.88;1.00;;;;;;;;;;4869913;29;20056;-77
2024/03/11 12:21:44;;;;;;;6.97;1.60;;;;;;;;;;4868873;29;20041;-76
2024/03/11 12:24:16;;;;;;;6.07;1.13;;;;;;;;;;4869073;29;20217;-73
2024/03/11 12:26:47;;;;;;;2.60;0.85;;;;;;;;;;4868647;29;20056;-74
2024/03/11 12:29:21;;;;;;;2.47;0.95;;;;;;;;;;4868140;29;20049;-76
2024/03/11 12:31:56;;;;;;;1.67;1.15;;;;;;;;;;4868668;29;20098;-75
2024/03/11 12:34:26;;;;;;;6.60;0.95;;;;;;;;;;4868716;29;20048;-74
2024/03/11 12:36:59;;;;;;;3.75;0.77;;;;;;;;;;4868704;29;20049;-75
2024/03/11 12:39:49;;;;;;;2.55;0.80;;;;;;;;;;4867764;29;20056;-76
2024/03/11 12:42:29;;;;;;;3.47;0.88;;;;;;;;;;4868884;29;20889;-73
2024/03/11 12:45:03;;;;;;;6.03;1.00;;;;;;;;;;4868748;29;20513;-75
2024/03/11 12:47:34;;;;;;;5.47;1.50;;;;;;;;;;4869156;29;20053;-74
2024/03/11 12:50:11;;;;;;;2.00;0.85;;;;;;;;;;4868595;29;20544;-75
2024/03/11 12:52:43;;;;;;;7.18;3.95;;;;;;;;;;4869140;29;20881;-75
2024/03/11 12:55:16;;;;;;;2.75;0.73;;;;;;;;;;4867928;29;20505;-81
2024/03/11 12:57:47;;;;;;;4.82;0.98;;;;;;;;;;4868142;29;20565;-73
2024/03/11 13:00:21;;;;;;;6.32;0.90;;;;;;;;;;4868755;29;20064;-75
2024/03/11 13:03:16;;;;;;;3.30;1.00;;;;;;;;;;4870358;29;20089;-74
2024/03/11 13:06:01;;;;;;;6.65;1.17;;;;;;;;;;4872289;29;20045;-83
2024/03/11 13:08:33;;;;;;;1.77;0.88;;;;;;;;;;4872161;29;20060;-80
2024/03/11 13:11:09;;;;;;;1.48;0.82;;;;;;;;;;4871814;29;20053;-75
2024/03/11 13:13:42;;;;;;;3.05;1.02;;;;;;;;;;4871697;29;20127;-74
2024/03/11 13:16:16;;;;;;;3.35;0.82;;;;;;;;;;4871376;29;20053;-74
2024/03/11 13:18:47;;;;;;;2.63;0.80;;;;;;;;;;4871450;29;20063;-74
2024/03/11 13:21:25;;;;;;;2.83;0.93;;;;;;;;;;4871376;29;20075;-75
2024/03/11 13:23:57;;;;;;;8.18;1.15;;;;;;;;;;4872576;29;20520;-75
2024/03/11 13:26:28;;;;;;;4.88;0.95;;;;;;;;;;4871128;29;20052;-75
2024/03/11 13:28:59;;;;;;;5.30;0.82;;;;;;;;;;4872492;29;20060;-74
2024/03/11 13:31:30;;;;;;;11.45;1.08;;;;;;;;;;4871705;29;20484;-73
2024/03/11 13:34:02;;;;;;;3.58;0.70;;;;;;;;;;4871370;29;20045;-73
2024/03/11 13:36:32;;;;;;;1.65;0.80;;;;;;;;;;4871853;29;20072;-73
2024/03/11 13:39:15;;;;;;;2.28;0.77;;;;;;;;;;4872165;29;20053;-74
2024/03/11 13:41:48;;;;;;;6.10;0.82;;;;;;;;;;4871628;29;20068;-75
2024/03/11 13:44:20;;;;;;;7.40;1.15;;;;;;;;;;4871332;29;20068;-75
2024/03/11 13:46:51;;;;;;;8.15;1.38;;;;;;;;;;4871626;29;20456;-80
2024/03/11 13:49:24;;;;;;;4.47;0.98;;;;;;;;;;4871540;29;20127;-74
2024/03/11 13:51:56;;;;;;;4.53;0.88;;;;;;;;;;4871626;29;20053;-75
2024/03/11 13:54:29;;;;;;;5.72;1.00;;;;;;;;;;4870933;29;20052;-75
2024/03/11 13:57:05;;;;;;;2.92;0.90;;;;;;;;;;4870567;29;20650;-74
2024/03/11 13:59:36;;;;;;;3.15;0.90;;;;;;;;;;4871045;29;20057;-73
2024/03/11 14:02:09;;;;;;;4.32;0.80;;;;;;;;;;4869586;29;20531;-77
2024/03/11 14:04:42;;;;;;;4.72;1.60;;;;;;;;;;4871059;29;20056;-77
2024/03/11 14:07:13;;;;;;;3.58;0.70;;;;;;;;;;4870005;29;20049;-75
2024/03/11 14:09:43;;;;;;;7.40;1.27;;;;;;;;;;4871446;29;20507;-76
2024/03/11 14:12:14;;;;;;;4.82;0.82;;;;;;;;;;4871031;29;20049;-75
2024/03/11 14:14:44;;;;;;;4.68;1.02;;;;;;;;;;4870993;29;20433;-72
2024/03/11 14:17:16;;;;;;;6.68;1.98;;;;;;;;;;4869645;29;20064;-75
2024/03/11 14:19:46;;;;;;;7.28;1.17;;;;;;;;;;4868805;29;20065;-75
2024/03/11 14:22:26;;;;;;;4.40;1.02;;;;;;;;;;4871032;29;20068;-74
2024/03/11 14:25:00;;;;;;;5.63;1.13;;;;;;;;;;4871034;29;20115;-74
2024/03/11 14:27:31;;;;;;;3.88;0.93;;;;;;;;;;4870528;29;20049;-73
2024/03/11 14:30:01;;;;;;;6.03;1.20;;;;;;;;;;4870737;29;20048;-73
2024/03/11 14:32:33;;;;;;;2.90;0.90;;;;;;;;;;4871191;29;20053;-75
2024/03/11 14:35:07;;;;;;;4.85;1.05;;;;;;;;;;4869380;29;20394;-74
2024/03/11 14:37:38;;;;;;;10.75;1.90;;;;;;;;;;4868678;29;20412;-75
2024/03/11 14:40:11;;;;;;;2.33;0.90;;;;;;;;;;4870223;29;20048;-74
2024/03/11 14:42:42;;;;;;;2.30;1.05;;;;;;;;;;4870615;29;20493;-73
2024/03/11 14:45:12;;;;;;;4.85;1.10;;;;;;;;;;4870462;29;20049;-73
2024/03/11 14:47:45;;;;;;;2.70;0.90;;;;;;;;;;4869383;29;20057;-73
2024/03/11 14:50:16;;;;;;;3.17;1.00;;;;;;;;;;4870075;29;20049;-73
2024/03/11 14:52:47;;;;;;;9.25;1.52;;;;;;;;;;4870852;29;20527;-73
2024/03/11 14:55:17;;;;;;;2.97;0.80;;;;;;;;;;4870974;29;20686;-74
2024/03/11 14:57:50;;;;;;;4.60;0.90;;;;;;;;;;4870204;29;20073;-75
2024/03/11 15:00:25;;;;;;;1.60;0.80;;;;;;;;;;4870290;29;20352;-75
2024/03/11 15:02:57;;;;;;;4.85;0.93;;;;;;;;;;4870078;29;20395;-78
2024/03/11 15:05:29;;;;;;;2.20;0.85;;;;;;;;;;4870089;29;20067;-75
2024/03/11 15:08:01;;;;;;;6.60;1.35;;;;;;;;;;4870058;29;20060;-75
2024/03/11 15:10:34;;;;;;;5.78;1.20;;;;;;;;;;4869673;29;20060;-75